Huntington, Indiana
Current Conditions -  °F | °C
As of 11:15 AM on Wednesday 28 Jan 2015 (Local Time) from KHHG Reporting Station
Clear Clear  
Wind Chill: 15°   Ceiling: Unl
Heat Index: 23°   Visibility: 10mi
Dew Point:   Wind: 7mph
Humidity: 48%   Direction: 130°SE
Pressure: 30.33"   Gusts: NA
Location:  40.88°N, 85.49°W
Report Text: KHHG 281615Z AUTO 13006KT 10SM CLR M05/M14 A3033 RMK AO2 T10481142
Loading
Personal Weather Stations






























Interactive Weather Map New forecast layout! Learn more

10-Day Weather Forecast

Advertisements
Track Severe Weather on mobile